Time;durP1;ratioP1;P1;durP2;ratioP2;P2;SDS_P1;SDS_P2;PMS_P1;PMS_P2;Temp;Humidity;BMP_temperature;BMP_pressure;BME280_temperature;BME280_humidity;BME280_pressure;Samples;Min_cycle;Max_cycle;Signal;HPM_P1;HPM_P2
2024/01/09 00:00:04;;;;;;;19.75;7.30;;;;;;;;;;5024966;28;20100;-78
2024/01/09 00:02:29;;;;;;;19.63;7.88;;;;;;;;;;5007107;28;20477;-77
2024/01/09 00:04:54;;;;;;;20.63;7.80;;;;;;;;;;5005634;28;20054;-79
2024/01/09 00:07:20;;;;;;;16.77;6.93;;;;;;;;;;5022211;28;20025;-77
2024/01/09 00:09:45;;;;;;;17.75;6.97;;;;;;;;;;5002894;28;20021;-78
2024/01/09 00:12:10;;;;;;;28.00;8.20;;;;;;;;;;5025436;28;20026;-78
2024/01/09 00:14:35;;;;;;;16.75;6.68;;;;;;;;;;5006429;28;20030;-78
2024/01/09 00:17:00;;;;;;;20.15;6.82;;;;;;;;;;5023338;28;20053;-79
2024/01/09 00:19:26;;;;;;;16.20;7.13;;;;;;;;;;5024984;28;20072;-77
2024/01/09 00:21:52;;;;;;;22.17;8.43;;;;;;;;;;5004962;28;20025;-79
2024/01/09 00:24:17;;;;;;;18.77;5.38;;;;;;;;;;5006835;28;20014;-78
2024/01/09 00:26:43;;;;;;;20.58;6.45;;;;;;;;;;5025212;28;20408;-76
2024/01/09 00:29:09;;;;;;;22.52;7.00;;;;;;;;;;5024829;28;20026;-79
2024/01/09 00:31:34;;;;;;;18.90;7.13;;;;;;;;;;5023605;28;20040;-78
2024/01/09 00:34:00;;;;;;;15.38;5.80;;;;;;;;;;5024076;28;20117;-78
2024/01/09 00:36:25;;;;;;;16.75;7.47;;;;;;;;;;5025410;28;20446;-78
2024/01/09 00:38:50;;;;;;;7.00;3.47;;;;;;;;;;5025815;28;20112;-78
2024/01/09 00:41:16;;;;;;;13.30;5.70;;;;;;;;;;5006913;28;20021;-77
2024/01/09 00:43:41;;;;;;;16.73;6.78;;;;;;;;;;5023820;28;20029;-78
2024/01/09 00:46:06;;;;;;;20.88;7.32;;;;;;;;;;5022915;28;20036;-78
2024/01/09 00:48:31;;;;;;;14.50;6.72;;;;;;;;;;5023609;28;20066;-78
2024/01/09 00:50:57;;;;;;;15.02;6.65;;;;;;;;;;5006839;28;20037;-78
2024/01/09 00:53:22;;;;;;;18.90;6.85;;;;;;;;;;5005872;28;20030;-78
2024/01/09 00:55:47;;;;;;;21.17;7.55;;;;;;;;;;5023781;28;20473;-77
2024/01/09 00:58:12;;;;;;;22.27;8.13;;;;;;;;;;5024686;28;20393;-79
2024/01/09 01:00:37;;;;;;;16.33;7.57;;;;;;;;;;5025527;28;20101;-77
2024/01/09 01:03:03;;;;;;;17.63;7.38;;;;;;;;;;5026865;28;20033;-77
2024/01/09 01:05:28;;;;;;;20.70;7.78;;;;;;;;;;5009212;28;20022;-77
2024/01/09 01:07:54;;;;;;;19.15;7.78;;;;;;;;;;5021498;28;20032;-78
2024/01/09 01:10:19;;;;;;;18.38;7.10;;;;;;;;;;5018596;28;20030;-77
2024/01/09 01:12:44;;;;;;;18.95;8.50;;;;;;;;;;5001777;28;20034;-77
2024/01/09 01:15:09;;;;;;;23.35;8.35;;;;;;;;;;5018629;28;20049;-75
2024/01/09 01:17:34;;;;;;;19.30;8.00;;;;;;;;;;5001042;28;20026;-74
2024/01/09 01:20:00;;;;;;;22.80;7.72;;;;;;;;;;5002107;28;20493;-76
2024/01/09 01:22:25;;;;;;;20.55;6.78;;;;;;;;;;5019693;28;20022;-74
2024/01/09 01:24:50;;;;;;;30.10;8.45;;;;;;;;;;5002476;28;20025;-74
2024/01/09 01:27:15;;;;;;;14.13;6.85;;;;;;;;;;5002897;28;20026;-75
2024/01/09 01:29:41;;;;;;;21.73;8.98;;;;;;;;;;5003130;28;20080;-74
2024/01/09 01:32:10;;;;;;;25.35;8.95;;;;;;;;;;5021061;28;20059;-74
2024/01/09 01:34:36;;;;;;;19.45;8.25;;;;;;;;;;5021347;28;20397;-74
2024/01/09 01:37:02;;;;;;;22.63;7.88;;;;;;;;;;5003103;28;20072;-74
2024/01/09 01:39:27;;;;;;;27.88;8.05;;;;;;;;;;5020491;28;20030;-75
2024/01/09 01:41:52;;;;;;;18.88;7.75;;;;;;;;;;5020991;28;20030;-74
2024/01/09 01:44:18;;;;;;;20.85;8.68;;;;;;;;;;5022465;28;20049;-77
2024/01/09 01:46:45;;;;;;;21.77;8.32;;;;;;;;;;5024146;28;20032;-78
2024/01/09 01:49:12;;;;;;;21.05;7.63;;;;;;;;;;5024188;28;20022;-77
2024/01/09 01:51:38;;;;;;;21.00;8.40;;;;;;;;;;5023565;28;20037;-78
2024/01/09 01:54:03;;;;;;;24.73;8.10;;;;;;;;;;5022385;28;20030;-79
2024/01/09 01:56:29;;;;;;;23.60;8.13;;;;;;;;;;5006004;28;20030;-78
2024/01/09 01:58:54;;;;;;;22.75;8.88;;;;;;;;;;5024152;28;20022;-78
2024/01/09 02:01:19;;;;;;;15.40;7.53;;;;;;;;;;5023757;28;20083;-80
2024/01/09 02:03:45;;;;;;;21.45;9.25;;;;;;;;;;5023526;28;20033;-78
2024/01/09 02:06:11;;;;;;;21.77;7.85;;;;;;;;;;5022463;28;20022;-77
2024/01/09 02:08:37;;;;;;;16.08;7.68;;;;;;;;;;5022135;28;20061;-78
2024/01/09 02:11:03;;;;;;;12.52;5.47;;;;;;;;;;5005921;28;20022;-78
2024/01/09 02:13:28;;;;;;;15.55;6.32;;;;;;;;;;5022192;28;20412;-79
2024/01/09 02:15:53;;;;;;;16.25;6.22;;;;;;;;;;5003777;28;20057;-78
2024/01/09 02:18:18;;;;;;;20.27;8.60;;;;;;;;;;5021363;28;20037;-79
2024/01/09 02:20:44;;;;;;;17.30;7.25;;;;;;;;;;5022535;28;20477;-79
2024/01/09 02:23:09;;;;;;;19.65;8.13;;;;;;;;;;5022573;28;20033;-78
2024/01/09 02:25:34;;;;;;;15.43;6.68;;;;;;;;;;5021520;28;20077;-79
2024/01/09 02:28:22;;;;;;;17.77;6.38;;;;;;;;;;5022177;28;20033;-78
2024/01/09 02:30:47;;;;;;;18.13;6.47;;;;;;;;;;5003282;28;20026;-80
2024/01/09 02:33:13;;;;;;;17.88;7.10;;;;;;;;;;5020984;28;20032;-78
2024/01/09 02:35:38;;;;;;;18.80;6.93;;;;;;;;;;5023025;28;20034;-79
2024/01/09 02:38:04;;;;;;;17.15;7.00;;;;;;;;;;5004967;28;20046;-79
2024/01/09 02:40:29;;;;;;;25.73;7.43;;;;;;;;;;5004315;28;20025;-79
2024/01/09 02:42:54;;;;;;;17.00;7.82;;;;;;;;;;5023725;28;20036;-80
2024/01/09 02:45:19;;;;;;;20.67;7.38;;;;;;;;;;5006826;28;20071;-79
2024/01/09 02:47:45;;;;;;;14.90;6.22;;;;;;;;;;5023275;28;20029;-79
2024/01/09 02:50:10;;;;;;;21.00;8.77;;;;;;;;;;5023232;28;20057;-78
2024/01/09 02:52:36;;;;;;;21.25;8.45;;;;;;;;;;5005094;28;20033;-77
2024/01/09 02:55:01;;;;;;;23.35;9.00;;;;;;;;;;5021286;28;20026;-78
2024/01/09 02:57:26;;;;;;;22.15;8.48;;;;;;;;;;5021188;28;20017;-77
2024/01/09 02:59:51;;;;;;;19.17;7.95;;;;;;;;;;5022459;28;20037;-78
2024/01/09 03:02:17;;;;;;;22.98;9.27;;;;;;;;;;5021839;28;20395;-79
2024/01/09 03:04:42;;;;;;;19.27;8.18;;;;;;;;;;5003208;28;20029;-78
2024/01/09 03:07:07;;;;;;;19.40;7.25;;;;;;;;;;5020832;28;20057;-79
2024/01/09 03:09:33;;;;;;;23.70;9.38;;;;;;;;;;5003394;28;20029;-79
2024/01/09 03:11:58;;;;;;;28.45;8.55;;;;;;;;;;5020045;28;20029;-79
2024/01/09 03:14:24;;;;;;;16.27;7.97;;;;;;;;;;5019611;28;20036;-79
2024/01/09 03:16:49;;;;;;;17.50;8.20;;;;;;;;;;5001363;28;20075;-79
2024/01/09 03:19:15;;;;;;;20.88;7.88;;;;;;;;;;5019604;28;20057;-78
2024/01/09 03:21:40;;;;;;;19.90;8.55;;;;;;;;;;5001808;28;20022;-79
2024/01/09 03:24:05;;;;;;;18.83;8.32;;;;;;;;;;5002371;28;20105;-79
2024/01/09 03:26:30;;;;;;;31.92;10.00;;;;;;;;;;5023567;28;20057;-79
2024/01/09 03:28:56;;;;;;;18.85;8.32;;;;;;;;;;5023703;28;20026;-79
2024/01/09 03:31:22;;;;;;;20.08;7.82;;;;;;;;;;5024619;28;20032;-79
2024/01/09 03:33:48;;;;;;;20.20;8.27;;;;;;;;;;5024079;28;20091;-79
2024/01/09 03:36:14;;;;;;;20.50;8.40;;;;;;;;;;5023905;28;20053;-79
2024/01/09 03:38:43;;;;;;;29.77;9.38;;;;;;;;;;5005932;28;20025;-79
2024/01/09 03:41:09;;;;;;;21.85;8.52;;;;;;;;;;5023598;28;20628;-79
2024/01/09 03:43:34;;;;;;;21.40;7.85;;;;;;;;;;5021463;28;20033;-78
2024/01/09 03:45:59;;;;;;;16.73;7.35;;;;;;;;;;5017977;28;20086;-79
2024/01/09 03:48:25;;;;;;;19.95;8.60;;;;;;;;;;5000053;28;20429;-79
2024/01/09 03:50:50;;;;;;;13.07;6.43;;;;;;;;;;5001448;28;20036;-79
2024/01/09 03:53:15;;;;;;;16.63;7.53;;;;;;;;;;5018956;28;20060;-79
2024/01/09 03:55:40;;;;;;;18.23;9.18;;;;;;;;;;5019674;28;20026;-79
2024/01/09 03:58:06;;;;;;;15.55;7.38;;;;;;;;;;5019310;28;20030;-78
2024/01/09 04:00:31;;;;;;;16.85;7.68;;;;;;;;;;5019643;28;20041;-79
2024/01/09 04:02:56;;;;;;;18.92;8.50;;;;;;;;;;5019909;28;20029;-79
2024/01/09 04:05:21;;;;;;;18.90;8.65;;;;;;;;;;5020218;28;20113;-79
2024/01/09 04:07:47;;;;;;;19.25;8.10;;;;;;;;;;5003741;28;20424;-79
2024/01/09 04:10:12;;;;;;;22.30;8.63;;;;;;;;;;5004438;28;20034;-77
2024/01/09 04:12:37;;;;;;;20.83;8.32;;;;;;;;;;5021382;28;20030;-76
2024/01/09 04:15:03;;;;;;;15.75;6.82;;;;;;;;;;5020470;28;20041;-77
2024/01/09 04:17:28;;;;;;;18.60;8.43;;;;;;;;;;5020800;28;20033;-77
2024/01/09 04:19:54;;;;;;;15.85;7.93;;;;;;;;;;5020308;28;20036;-77
2024/01/09 04:22:19;;;;;;;17.77;8.60;;;;;;;;;;5019299;28;20025;-78
2024/01/09 04:24:44;;;;;;;21.42;9.35;;;;;;;;;;5019645;28;20452;-78
2024/01/09 04:27:09;;;;;;;23.08;8.80;;;;;;;;;;5019343;28;20404;-78
2024/01/09 04:29:34;;;;;;;10.35;5.72;;;;;;;;;;5019185;28;20026;-77
2024/01/09 04:32:00;;;;;;;19.08;7.35;;;;;;;;;;5019579;28;20057;-78
2024/01/09 04:34:25;;;;;;;11.98;4.90;;;;;;;;;;5019847;28;20026;-77
2024/01/09 04:36:51;;;;;;;17.05;5.80;;;;;;;;;;5019134;28;20032;-78
2024/01/09 04:39:16;;;;;;;7.45;3.47;;;;;;;;;;5020352;28;20030;-77
2024/01/09 04:41:41;;;;;;;22.95;9.30;;;;;;;;;;5030384;28;20040;-77
2024/01/09 04:44:06;;;;;;;22.45;7.78;;;;;;;;;;5033029;28;20030;-78
2024/01/09 04:46:32;;;;;;;20.25;7.70;;;;;;;;;;5009357;28;20030;-79
2024/01/09 04:48:57;;;;;;;24.50;9.10;;;;;;;;;;5016950;28;20030;-78
2024/01/09 04:51:22;;;;;;;27.38;8.65;;;;;;;;;;5018242;28;20030;-79
2024/01/09 04:53:47;;;;;;;22.98;9.63;;;;;;;;;;5019867;28;20030;-78
2024/01/09 04:56:12;;;;;;;25.25;9.02;;;;;;;;;;5001787;28;20488;-78
2024/01/09 04:58:38;;;;;;;22.10;8.23;;;;;;;;;;5023801;28;20048;-77
2024/01/09 05:01:03;;;;;;;17.33;7.75;;;;;;;;;;5024301;28;20041;-78
2024/01/09 05:03:28;;;;;;;23.08;8.52;;;;;;;;;;5027094;28;20440;-78
2024/01/09 05:05:53;;;;;;;17.70;8.02;;;;;;;;;;5027039;28;20072;-78
2024/01/09 05:08:19;;;;;;;31.40;9.32;;;;;;;;;;5022499;28;20029;-77
2024/01/09 05:10:44;;;;;;;19.33;9.02;;;;;;;;;;5003477;28;20030;-77
2024/01/09 05:13:09;;;;;;;19.67;8.60;;;;;;;;;;5020211;28;20037;-77
2024/01/09 05:15:35;;;;;;;23.60;8.48;;;;;;;;;;5003418;28;20026;-77
2024/01/09 05:18:01;;;;;;;20.48;8.60;;;;;;;;;;5005501;28;20089;-78
2024/01/09 05:20:26;;;;;;;21.52;8.48;;;;;;;;;;5024398;28;20030;-77
2024/01/09 05:22:51;;;;;;;20.92;9.38;;;;;;;;;;5023326;28;20113;-79
2024/01/09 05:25:16;;;;;;;20.27;9.63;;;;;;;;;;5023738;28;20022;-78
2024/01/09 05:27:42;;;;;;;17.42;9.18;;;;;;;;;;5023663;28;20472;-80
2024/01/09 05:30:08;;;;;;;13.10;5.97;;;;;;;;;;5007234;28;20034;-80
2024/01/09 05:32:34;;;;;;;23.70;9.27;;;;;;;;;;5025165;28;20022;-79
2024/01/09 05:34:59;;;;;;;26.25;9.07;;;;;;;;;;5005934;28;20026;-79
2024/01/09 05:37:24;;;;;;;32.28;9.45;;;;;;;;;;5007081;28;20033;-78
2024/01/09 05:39:50;;;;;;;21.80;8.90;;;;;;;;;;5006239;28;20050;-79
2024/01/09 05:42:15;;;;;;;25.70;9.82;;;;;;;;;;5024032;28;20046;-79
2024/01/09 05:44:40;;;;;;;29.05;9.85;;;;;;;;;;5022878;28;20030;-78
2024/01/09 05:47:05;;;;;;;19.27;8.70;;;;;;;;;;5021854;28;20029;-79
2024/01/09 05:49:30;;;;;;;26.65;9.75;;;;;;;;;;5019895;28;20140;-79
2024/01/09 05:51:56;;;;;;;25.20;9.30;;;;;;;;;;5017926;28;20053;-80
2024/01/09 05:54:21;;;;;;;27.00;9.57;;;;;;;;;;5019485;28;20025;-80
2024/01/09 05:56:46;;;;;;;21.45;8.88;;;;;;;;;;5019288;28;20034;-79
2024/01/09 05:59:15;;;;;;;33.15;8.85;;;;;;;;;;5019853;28;20030;-79
2024/01/09 06:01:40;;;;;;;19.15;8.32;;;;;;;;;;5003305;28;20021;-79
2024/01/09 06:04:05;;;;;;;13.55;6.75;;;;;;;;;;5002255;28;20068;-80
2024/01/09 06:06:31;;;;;;;7.70;4.75;;;;;;;;;;5020176;28;20022;-79
2024/01/09 06:08:56;;;;;;;15.43;6.43;;;;;;;;;;5020444;28;20033;-80
2024/01/09 06:11:21;;;;;;;17.85;7.18;;;;;;;;;;5018507;28;20437;-80
2024/01/09 06:13:47;;;;;;;17.90;6.70;;;;;;;;;;5017035;28;20586;-79
2024/01/09 06:16:12;;;;;;;15.43;6.88;;;;;;;;;;5016510;28;20025;-80
2024/01/09 06:18:37;;;;;;;15.75;6.65;;;;;;;;;;5017482;28;20018;-80
2024/01/09 06:21:03;;;;;;;14.93;7.35;;;;;;;;;;5016615;28;20101;-80
2024/01/09 06:23:28;;;;;;;17.35;5.93;;;;;;;;;;5016899;28;20030;-79
2024/01/09 06:25:53;;;;;;;11.48;5.85;;;;;;;;;;5016503;28;20037;-79
2024/01/09 06:28:20;;;;;;;21.35;7.95;;;;;;;;;;4999763;28;20030;-77
2024/01/09 06:30:45;;;;;;;32.00;10.57;;;;;;;;;;5017027;28;20030;-79
2024/01/09 06:33:10;;;;;;;24.20;8.18;;;;;;;;;;5017538;28;20030;-80
2024/01/09 06:35:36;;;;;;;20.45;9.05;;;;;;;;;;5016745;28;20062;-79
2024/01/09 06:38:01;;;;;;;26.65;8.70;;;;;;;;;;5016914;28;20030;-79
2024/01/09 06:40:26;;;;;;;21.85;9.35;;;;;;;;;;5017725;28;20029;-78
2024/01/09 06:42:51;;;;;;;14.02;6.25;;;;;;;;;;5017215;28;20037;-79
2024/01/09 06:45:17;;;;;;;25.98;8.93;;;;;;;;;;4999961;28;20020;-79
2024/01/09 06:47:42;;;;;;;29.67;10.32;;;;;;;;;;5017559;28;20484;-79
2024/01/09 06:50:08;;;;;;;19.27;9.20;;;;;;;;;;5018008;28;20018;-80
2024/01/09 06:52:33;;;;;;;24.17;9.38;;;;;;;;;;4999758;28;20026;-80
2024/01/09 06:54:58;;;;;;;22.85;9.80;;;;;;;;;;4998916;28;20400;-78
2024/01/09 06:57:24;;;;;;;22.88;9.13;;;;;;;;;;5014751;28;20366;-79
2024/01/09 06:59:50;;;;;;;20.52;7.63;;;;;;;;;;4997710;28;20049;-80
2024/01/09 07:02:15;;;;;;;21.88;9.63;;;;;;;;;;5016390;28;20087;-80
2024/01/09 07:04:40;;;;;;;23.92;10.07;;;;;;;;;;5016139;28;20498;-79
2024/01/09 07:07:06;;;;;;;28.35;8.60;;;;;;;;;;5016639;28;20021;-79
2024/01/09 07:09:32;;;;;;;21.70;9.48;;;;;;;;;;5016847;28;20099;-80
2024/01/09 07:11:57;;;;;;;31.10;10.32;;;;;;;;;;5017865;28;20428;-79
2024/01/09 07:14:22;;;;;;;19.90;8.57;;;;;;;;;;4999974;28;20030;-79
2024/01/09 07:16:47;;;;;;;19.60;8.18;;;;;;;;;;5017975;28;20117;-80
2024/01/09 07:19:13;;;;;;;25.98;8.90;;;;;;;;;;5017091;28;20072;-80
2024/01/09 07:21:38;;;;;;;19.55;8.80;;;;;;;;;;5017961;28;20026;-77
2024/01/09 07:24:04;;;;;;;20.85;9.20;;;;;;;;;;5017025;28;20105;-79
2024/01/09 07:26:29;;;;;;;25.35;9.07;;;;;;;;;;5014988;28;20504;-79
2024/01/09 07:28:54;;;;;;;18.45;8.48;;;;;;;;;;4997888;28;20038;-79
2024/01/09 07:31:19;;;;;;;23.48;10.55;;;;;;;;;;5014722;28;20030;-79
2024/01/09 07:33:45;;;;;;;21.10;9.23;;;;;;;;;;5014093;28;20029;-79
2024/01/09 07:36:11;;;;;;;15.73;7.00;;;;;;;;;;4997375;28;20025;-79
2024/01/09 07:38:36;;;;;;;17.00;7.95;;;;;;;;;;5015934;28;20037;-79
2024/01/09 07:41:02;;;;;;;25.17;8.90;;;;;;;;;;5016618;28;20037;-78
2024/01/09 07:43:28;;;;;;;21.73;8.27;;;;;;;;;;4999475;28;20025;-78
2024/01/09 07:45:54;;;;;;;23.92;9.13;;;;;;;;;;5017629;28;20495;-79
2024/01/09 07:48:19;;;;;;;19.88;8.63;;;;;;;;;;5016704;28;20017;-82
2024/01/09 07:50:44;;;;;;;31.40;12.02;;;;;;;;;;4999915;28;20473;-82
2024/01/09 07:53:09;;;;;;;26.10;9.90;;;;;;;;;;5000632;28;20038;-80
2024/01/09 07:55:35;;;;;;;24.58;9.15;;;;;;;;;;5017096;28;20022;-80
2024/01/09 07:58:00;;;;;;;23.88;9.85;;;;;;;;;;5017294;28;20026;-80
2024/01/09 08:00:25;;;;;;;24.50;10.52;;;;;;;;;;5017104;28;20373;-83
2024/01/09 08:02:50;;;;;;;24.73;10.27;;;;;;;;;;5015753;28;20026;-82
2024/01/09 08:05:16;;;;;;;26.17;10.65;;;;;;;;;;4999509;28;20047;-81
2024/01/09 08:07:41;;;;;;;28.70;11.35;;;;;;;;;;5015892;28;20034;-81
2024/01/09 08:10:07;;;;;;;28.00;11.00;;;;;;;;;;5014919;28;20034;-82
2024/01/09 08:12:32;;;;;;;15.80;6.15;;;;;;;;;;5017432;28;20034;-83
2024/01/09 08:14:57;;;;;;;32.10;10.95;;;;;;;;;;4999493;28;20112;-79
2024/01/09 08:17:24;;;;;;;27.65;10.25;;;;;;;;;;5036289;28;20029;-79
2024/01/09 08:19:50;;;;;;;26.58;9.77;;;;;;;;;;5029024;28;20025;-79
2024/01/09 08:22:16;;;;;;;29.73;11.18;;;;;;;;;;5022671;28;20088;-81
2024/01/09 08:24:42;;;;;;;33.08;11.88;;;;;;;;;;5015235;28;20436;-83
2024/01/09 08:27:07;;;;;;;21.05;9.82;;;;;;;;;;5013879;28;20096;-82
2024/01/09 08:29:32;;;;;;;29.75;9.20;;;;;;;;;;4997360;28;20026;-80
2024/01/09 08:31:57;;;;;;;26.20;10.80;;;;;;;;;;5017680;28;20075;-82
2024/01/09 08:34:23;;;;;;;23.60;10.35;;;;;;;;;;5000834;28;20026;-81
2024/01/09 08:36:48;;;;;;;38.40;10.85;;;;;;;;;;5020424;28;20030;-82
2024/01/09 08:39:16;;;;;;;31.45;10.68;;;;;;;;;;5019862;28;20072;-82
2024/01/09 08:41:42;;;;;;;8.13;3.05;;;;;;;;;;5022855;28;20108;-82
2024/01/09 08:44:08;;;;;;;21.30;9.77;;;;;;;;;;5018619;28;20107;-81
2024/01/09 08:46:33;;;;;;;33.60;10.50;;;;;;;;;;5001460;28;20033;-80
2024/01/09 08:48:58;;;;;;;29.88;10.88;;;;;;;;;;5018906;28;20134;-81
2024/01/09 08:51:24;;;;;;;16.40;6.28;;;;;;;;;;5002205;28;20033;-80
2024/01/09 08:53:49;;;;;;;22.50;8.93;;;;;;;;;;5019216;28;20057;-82
2024/01/09 08:56:14;;;;;;;15.73;7.60;;;;;;;;;;5018793;28;20032;-82
2024/01/09 08:58:40;;;;;;;21.15;10.07;;;;;;;;;;5019842;28;20114;-82
2024/01/09 09:01:05;;;;;;;30.20;10.95;;;;;;;;;;5001520;28;20049;-81
2024/01/09 09:03:30;;;;;;;31.85;11.80;;;;;;;;;;5001436;28;20030;-81
2024/01/09 09:05:56;;;;;;;16.58;7.40;;;;;;;;;;5017323;28;20037;-80
2024/01/09 09:08:22;;;;;;;24.55;9.82;;;;;;;;;;5018462;28;20464;-81
2024/01/09 09:10:47;;;;;;;19.90;9.02;;;;;;;;;;5001553;28;20022;-81
2024/01/09 09:13:12;;;;;;;24.13;8.90;;;;;;;;;;5001104;28;20024;-82
2024/01/09 09:15:38;;;;;;;27.30;9.43;;;;;;;;;;5019102;28;20036;-82
2024/01/09 09:18:03;;;;;;;25.40;10.90;;;;;;;;;;5001001;28;20052;-84
2024/01/09 09:20:28;;;;;;;26.83;11.00;;;;;;;;;;5019161;28;20030;-80
2024/01/09 09:22:54;;;;;;;40.45;13.55;;;;;;;;;;5017124;28;20528;-82
2024/01/09 09:25:19;;;;;;;25.63;11.25;;;;;;;;;;5016988;28;20018;-83
2024/01/09 09:27:45;;;;;;;21.33;9.38;;;;;;;;;;5017370;28;20117;-83
2024/01/09 09:30:12;;;;;;;17.50;8.30;;;;;;;;;;5018211;28;20441;-82
2024/01/09 09:32:37;;;;;;;31.25;10.38;;;;;;;;;;5018127;28;20453;-80
2024/01/09 09:35:03;;;;;;;22.73;10.30;;;;;;;;;;5018118;28;20120;-82
2024/01/09 09:37:28;;;;;;;24.92;11.52;;;;;;;;;;5018236;28;20022;-83
2024/01/09 09:39:54;;;;;;;29.08;10.20;;;;;;;;;;5000572;28;20527;-82
2024/01/09 09:42:24;;;;;;;31.58;11.07;;;;;;;;;;5016293;28;20477;-80
2024/01/09 09:44:54;;;;;;;21.70;9.48;;;;;;;;;;5000494;28;20025;-81
2024/01/09 09:47:21;;;;;;;19.30;7.93;;;;;;;;;;5018461;28;20484;-83
2024/01/09 09:49:46;;;;;;;28.73;10.73;;;;;;;;;;5018280;28;20030;-83
2024/01/09 09:52:12;;;;;;;20.92;8.95;;;;;;;;;;5017852;28;20053;-81
2024/01/09 09:54:38;;;;;;;26.63;10.52;;;;;;;;;;5000800;28;20116;-81
2024/01/09 09:57:04;;;;;;;26.50;10.65;;;;;;;;;;5018173;28;20139;-83
2024/01/09 09:59:29;;;;;;;25.10;11.43;;;;;;;;;;5000387;28;20018;-83
2024/01/09 10:01:55;;;;;;;26.17;10.13;;;;;;;;;;5000295;28;20076;-81
2024/01/09 10:04:46;;;;;;;33.90;12.23;;;;;;;;;;5018074;28;20492;-81
2024/01/09 10:07:16;;;;;;;27.23;11.13;;;;;;;;;;5017723;28;20053;-81
2024/01/09 10:09:46;;;;;;;33.83;9.90;;;;;;;;;;4999793;28;20072;-80
2024/01/09 10:12:12;;;;;;;13.63;6.88;;;;;;;;;;5000079;28;20028;-79
2024/01/09 10:14:37;;;;;;;26.55;10.85;;;;;;;;;;5017710;28;20030;-82
2024/01/09 10:17:05;;;;;;;34.92;12.30;;;;;;;;;;5017503;28;20064;-82
2024/01/09 10:19:30;;;;;;;19.77;7.95;;;;;;;;;;4999274;28;20472;-82
2024/01/09 10:21:55;;;;;;;30.02;11.23;;;;;;;;;;5000084;28;20045;-82
2024/01/09 10:24:21;;;;;;;28.15;12.32;;;;;;;;;;5016460;28;20105;-81
2024/01/09 10:26:50;;;;;;;31.38;11.23;;;;;;;;;;5016174;28;20028;-82
2024/01/09 10:29:16;;;;;;;29.63;11.05;;;;;;;;;;5017642;28;20070;-81
2024/01/09 10:31:44;;;;;;;24.10;11.25;;;;;;;;;;5000334;28;20053;-81
2024/01/09 10:34:10;;;;;;;23.63;10.70;;;;;;;;;;4999611;28;20460;-83
2024/01/09 10:36:36;;;;;;;22.50;9.43;;;;;;;;;;5000487;28;20030;-84
2024/01/09 10:39:04;;;;;;;27.60;11.52;;;;;;;;;;5017237;28;20029;-82
2024/01/09 10:41:30;;;;;;;31.92;11.90;;;;;;;;;;4999965;28;20029;-82
2024/01/09 10:43:55;;;;;;;32.22;12.15;;;;;;;;;;5015824;28;20030;-80
2024/01/09 10:46:24;;;;;;;21.98;8.40;;;;;;;;;;5016045;28;20025;-81
2024/01/09 10:48:50;;;;;;;26.75;9.90;;;;;;;;;;5016868;28;20460;-78
2024/01/09 10:51:17;;;;;;;29.13;12.52;;;;;;;;;;5016989;28;20053;-78
2024/01/09 10:53:44;;;;;;;26.33;11.15;;;;;;;;;;5015597;28;20025;-79
2024/01/09 10:56:12;;;;;;;30.70;11.93;;;;;;;;;;5015108;28;20026;-82
2024/01/09 10:58:38;;;;;;;33.92;12.65;;;;;;;;;;4997472;28;20053;-79
2024/01/09 11:01:04;;;;;;;36.22;12.90;;;;;;;;;;5017176;28;20037;-79
2024/01/09 11:03:29;;;;;;;34.42;13.30;;;;;;;;;;5016832;28;20030;-79
2024/01/09 11:05:58;;;;;;;37.95;13.30;;;;;;;;;;5016443;28;20022;-78
2024/01/09 11:08:25;;;;;;;23.42;9.48;;;;;;;;;;4999715;28;20036;-80
2024/01/09 11:10:51;;;;;;;44.38;12.93;;;;;;;;;;4999520;28;20503;-78
2024/01/09 11:13:19;;;;;;;24.98;11.57;;;;;;;;;;5016362;28;20512;-79
2024/01/09 11:15:52;;;;;;;27.17;11.23;;;;;;;;;;5016800;28;20018;-80
2024/01/09 11:18:18;;;;;;;32.22;12.07;;;;;;;;;;4998802;28;20076;-80
2024/01/09 11:20:43;;;;;;;34.08;11.60;;;;;;;;;;4999330;28;20029;-79
2024/01/09 11:23:12;;;;;;;30.25;11.98;;;;;;;;;;5016612;28;20037;-79
2024/01/09 11:25:37;;;;;;;30.35;10.82;;;;;;;;;;5016184;28;20061;-80
2024/01/09 11:28:03;;;;;;;27.05;11.60;;;;;;;;;;5015502;28;20038;-77
2024/01/09 11:30:30;;;;;;;30.90;11.20;;;;;;;;;;4997856;28;20026;-78
2024/01/09 11:32:57;;;;;;;27.95;11.75;;;;;;;;;;5015545;28;20185;-79
2024/01/09 11:35:22;;;;;;;26.33;12.02;;;;;;;;;;5015508;28;20507;-79
2024/01/09 11:37:51;;;;;;;26.67;11.57;;;;;;;;;;5015071;28;20033;-79
2024/01/09 11:40:18;;;;;;;38.60;12.07;;;;;;;;;;5015253;28;20028;-79
2024/01/09 11:42:47;;;;;;;30.85;11.20;;;;;;;;;;4997885;28;20045;-80
2024/01/09 11:45:18;;;;;;;25.77;10.93;;;;;;;;;;5015643;28;20036;-80
2024/01/09 11:47:44;;;;;;;27.15;11.77;;;;;;;;;;5015022;28;20026;-78
2024/01/09 11:50:10;;;;;;;26.98;11.00;;;;;;;;;;5015314;28;20037;-79
2024/01/09 11:52:37;;;;;;;27.30;12.05;;;;;;;;;;4997926;28;20061;-80
2024/01/09 11:55:20;;;;;;;28.30;11.52;;;;;;;;;;4998815;28;20030;-80
2024/01/09 11:57:46;;;;;;;23.45;10.20;;;;;;;;;;5016285;28;20037;-79
2024/01/09 12:00:11;;;;;;;29.23;11.80;;;;;;;;;;5038294;28;20029;-78
2024/01/09 12:02:37;;;;;;;33.95;12.57;;;;;;;;;;5037940;28;20021;-79
2024/01/09 12:05:04;;;;;;;31.10;11.88;;;;;;;;;;5034155;28;20453;-80
2024/01/09 12:07:30;;;;;;;19.95;6.95;;;;;;;;;;5002185;28;20079;-79
2024/01/09 12:09:56;;;;;;;35.20;11.98;;;;;;;;;;5019747;28;20030;-80
2024/01/09 12:12:23;;;;;;;26.67;11.32;;;;;;;;;;5019652;28;20577;-81
2024/01/09 12:14:52;;;;;;;28.95;11.93;;;;;;;;;;5020068;28;20038;-79
2024/01/09 12:17:37;;;;;;;38.28;13.32;;;;;;;;;;5019783;28;20026;-80
2024/01/09 12:20:05;;;;;;;28.65;11.40;;;;;;;;;;5002263;28;20033;-81
2024/01/09 12:22:31;;;;;;;27.40;11.07;;;;;;;;;;5002429;28;20481;-80
2024/01/09 12:24:58;;;;;;;27.85;11.23;;;;;;;;;;5020337;28;20018;-81
2024/01/09 12:27:24;;;;;;;28.23;11.68;;;;;;;;;;5019604;28;20041;-82
2024/01/09 12:29:51;;;;;;;31.20;12.35;;;;;;;;;;5019932;28;20033;-80
2024/01/09 12:32:17;;;;;;;32.97;11.80;;;;;;;;;;5002005;28;20104;-79
2024/01/09 12:34:43;;;;;;;32.85;12.30;;;;;;;;;;5002401;28;20064;-79
2024/01/09 12:37:08;;;;;;;33.00;12.40;;;;;;;;;;5019957;28;20037;-82
2024/01/09 12:39:39;;;;;;;32.20;12.60;;;;;;;;;;5020081;28;20076;-80
2024/01/09 12:42:23;;;;;;;26.55;10.18;;;;;;;;;;5002560;28;20063;-81
2024/01/09 12:44:48;;;;;;;30.70;10.73;;;;;;;;;;5020583;28;20381;-80
2024/01/09 12:47:16;;;;;;;31.23;11.55;;;;;;;;;;5018822;28;20033;-80
2024/01/09 12:49:42;;;;;;;28.50;11.70;;;;;;;;;;5019723;28;20189;-82
2024/01/09 12:52:08;;;;;;;26.08;11.45;;;;;;;;;;5020671;28;20068;-81
2024/01/09 12:54:33;;;;;;;28.75;10.82;;;;;;;;;;5020897;28;20090;-81
2024/01/09 12:57:00;;;;;;;31.30;12.10;;;;;;;;;;5019331;28;20053;-80
2024/01/09 12:59:26;;;;;;;31.33;12.50;;;;;;;;;;5002865;28;20443;-80
2024/01/09 13:01:53;;;;;;;29.17;12.18;;;;;;;;;;5020184;28;20113;-79
2024/01/09 13:04:18;;;;;;;31.17;11.40;;;;;;;;;;5021023;28;20022;-81
2024/01/09 13:06:44;;;;;;;30.98;12.25;;;;;;;;;;5021055;28;20044;-78
2024/01/09 13:09:12;;;;;;;22.95;9.95;;;;;;;;;;5002686;28;20075;-81
2024/01/09 13:11:42;;;;;;;27.15;10.07;;;;;;;;;;5020347;28;20033;-82
2024/01/09 13:14:10;;;;;;;29.42;10.82;;;;;;;;;;5020248;28;20496;-81
2024/01/09 13:16:35;;;;;;;23.15;10.25;;;;;;;;;;5020650;28;20100;-82
2024/01/09 13:19:01;;;;;;;31.17;11.50;;;;;;;;;;5019100;28;20099;-81
2024/01/09 13:21:29;;;;;;;21.00;10.45;;;;;;;;;;5019780;28;20026;-79
2024/01/09 13:23:55;;;;;;;29.02;10.48;;;;;;;;;;5017246;28;20057;-80
2024/01/09 13:26:20;;;;;;;14.85;6.53;;;;;;;;;;5017991;28;20025;-81
2024/01/09 13:28:46;;;;;;;23.98;10.55;;;;;;;;;;5019803;28;20030;-79
2024/01/09 13:31:12;;;;;;;23.17;10.45;;;;;;;;;;5018794;28;20030;-81
2024/01/09 13:33:38;;;;;;;21.20;8.23;;;;;;;;;;5018414;28;20079;-80
2024/01/09 13:36:05;;;;;;;33.03;13.07;;;;;;;;;;5019249;28;20021;-80
2024/01/09 13:38:31;;;;;;;32.60;11.85;;;;;;;;;;5018979;28;20397;-80
2024/01/09 13:40:56;;;;;;;32.17;12.27;;;;;;;;;;5000873;28;20021;-80
2024/01/09 13:43:21;;;;;;;28.80;12.32;;;;;;;;;;5018892;28;20049;-80
2024/01/09 13:45:46;;;;;;;31.15;10.80;;;;;;;;;;5017403;28;20080;-80
2024/01/09 13:48:12;;;;;;;20.92;8.77;;;;;;;;;;5018409;28;20041;-80
2024/01/09 13:50:38;;;;;;;31.17;13.18;;;;;;;;;;5001054;28;20033;-81
2024/01/09 13:53:03;;;;;;;23.23;8.55;;;;;;;;;;5000538;28;20034;-80
2024/01/09 13:55:28;;;;;;;11.93;5.15;;;;;;;;;;5017711;28;20022;-79
2024/01/09 13:57:54;;;;;;;29.30;11.70;;;;;;;;;;5018094;28;20037;-80
2024/01/09 14:00:19;;;;;;;13.73;7.00;;;;;;;;;;5000146;28;20383;-81
2024/01/09 14:02:44;;;;;;;29.75;11.57;;;;;;;;;;5017399;28;20021;-79
2024/01/09 14:05:10;;;;;;;30.80;12.45;;;;;;;;;;5000155;28;20190;-78
2024/01/09 14:07:38;;;;;;;19.90;9.07;;;;;;;;;;5017349;28;20074;-80
2024/01/09 14:10:05;;;;;;;26.48;10.68;;;;;;;;;;5018809;28;20026;-81
2024/01/09 14:12:34;;;;;;;14.75;6.72;;;;;;;;;;5001282;28;20125;-80
2024/01/09 14:15:01;;;;;;;12.93;7.00;;;;;;;;;;5018379;28;20050;-80
2024/01/09 14:17:26;;;;;;;17.90;9.57;;;;;;;;;;5017278;28;20025;-79